Detroit (DTW/KDTW)

Information

Location
Detroit, MI
Local Time
14:21 / 2:21 pm
GMT Time
18:21 / 6:21 pm
Gates
No FAA reported delays
METAR KDTW 201753Z VRB04KT 10SM SCT025 26/19 A3001 RMK AO2 SLP158 T02560194 10256 20183 58006
TAF KDTW 201731Z 2018/2124 17006KT P6SM SCT020 FM202100 15004KT P6SM SCT250 FM210600 VRB03KT 4SM BR BKN030 FM211500 15006KT 3SM BR SCT030 FM211800 16005KT P6SM SCT035